Weather at Košice Airport

Public forecast

Using degrees Celsius for public forecast. Weather courtesy of forecast.io.

Current aviation weather report (METAR) for Košice Airport

2024/06/19 01:30 (retrieved 24 minutes ago)

LZKZ 190130Z VRB01KT CAVOK 16/15 Q1016 NOSIG

Closest aviation forecast (TAF) to Košice Airport

Forecast is more than 6 hours old.

Closest forecast is Sliač Airport, 83.6 nm (154.8 km) W.

2024/06/18 18:36 (retrieved 7 hours ago)

TAF LZSL 181630Z 1818/1906 VRB03KT CAVOK